sensor_id;sensor_type;location;lat;lon;timestamp;pressure;altitude;pressure_sealevel;temperature;humidity
12799;BME280;19250;42.646;26.980;2022-10-30T00:01:02;99697.13;;;11.59;100.00
12799;BME280;19250;42.646;26.980;2022-10-30T00:03:30;99691.97;;;11.58;100.00
12799;BME280;19250;42.646;26.980;2022-10-30T00:05:57;99685.84;;;11.75;100.00
12799;BME280;19250;42.646;26.980;2022-10-30T00:08:24;99675.03;;;11.67;100.00
12799;BME280;19250;42.646;26.980;2022-10-30T00:10:52;99683.00;;;11.49;100.00
12799;BME280;19250;42.646;26.980;2022-10-30T00:13:20;99677.00;;;11.74;100.00
12799;BME280;19250;42.646;26.980;2022-10-30T00:15:49;99679.34;;;12.05;100.00
12799;BME280;19250;42.646;26.980;2022-10-30T00:18:19;99668.38;;;12.25;100.00
12799;BME280;19250;42.646;26.980;2022-10-30T00:20:46;99671.66;;;12.19;100.00
12799;BME280;19250;42.646;26.980;2022-10-30T00:23:13;99670.31;;;12.23;100.00
12799;BME280;19250;42.646;26.980;2022-10-30T00:25:41;99674.00;;;12.40;100.00
12799;BME280;19250;42.646;26.980;2022-10-30T00:28:08;99668.59;;;12.32;100.00
12799;BME280;19250;42.646;26.980;2022-10-30T00:30:36;99640.31;;;12.29;100.00
12799;BME280;19250;42.646;26.980;2022-10-30T00:33:04;99675.81;;;12.57;100.00
12799;BME280;19250;42.646;26.980;2022-10-30T00:35:33;99664.94;;;12.76;100.00
12799;BME280;19250;42.646;26.980;2022-10-30T00:38:00;99664.66;;;12.62;100.00
12799;BME280;19250;42.646;26.980;2022-10-30T00:40:27;99667.66;;;12.41;100.00
12799;BME280;19250;42.646;26.980;2022-10-30T00:42:55;99665.91;;;12.32;100.00
12799;BME280;19250;42.646;26.980;2022-10-30T00:45:22;99666.59;;;12.34;100.00
12799;BME280;19250;42.646;26.980;2022-10-30T00:47:52;99668.19;;;12.62;100.00
12799;BME280;19250;42.646;26.980;2022-10-30T00:50:23;99658.03;;;12.30;100.00
12799;BME280;19250;42.646;26.980;2022-10-30T00:52:56;99662.97;;;11.35;100.00
12799;BME280;19250;42.646;26.980;2022-10-30T00:55:27;99650.88;;;11.31;100.00
12799;BME280;19250;42.646;26.980;2022-10-30T00:57:57;99655.16;;;11.52;100.00
12799;BME280;19250;42.646;26.980;2022-10-30T01:00:26;99646.38;;;11.05;100.00
12799;BME280;19250;42.646;26.980;2022-10-30T01:02:55;99650.88;;;10.38;100.00
12799;BME280;19250;42.646;26.980;2022-10-30T01:05:24;99648.19;;;10.38;100.00
12799;BME280;19250;42.646;26.980;2022-10-30T01:07:55;99644.13;;;10.54;100.00
12799;BME280;19250;42.646;26.980;2022-10-30T01:10:23;99632.59;;;10.53;100.00
12799;BME280;19250;42.646;26.980;2022-10-30T01:12:51;99632.47;;;10.55;100.00
12799;BME280;19250;42.646;26.980;2022-10-30T01:15:24;99635.28;;;11.09;100.00
12799;BME280;19250;42.646;26.980;2022-10-30T01:18:15;99633.00;;;11.41;100.00
12799;BME280;19250;42.646;26.980;2022-10-30T01:21:11;99636.97;;;11.37;100.00
12799;BME280;19250;42.646;26.980;2022-10-30T01:23:52;99595.19;;;11.19;100.00
12799;BME280;19250;42.646;26.980;2022-10-30T01:26:29;99629.09;;;11.36;100.00
12799;BME280;19250;42.646;26.980;2022-10-30T01:29:12;99632.97;;;11.51;100.00
12799;BME280;19250;42.646;26.980;2022-10-30T01:31:54;99629.31;;;11.52;100.00
12799;BME280;19250;42.646;26.980;2022-10-30T01:34:30;99626.22;;;11.47;100.00
12799;BME280;19250;42.646;26.980;2022-10-30T01:37:02;99617.81;;;11.42;100.00
12799;BME280;19250;42.646;26.980;2022-10-30T01:39:35;99620.50;;;11.15;100.00
12799;BME280;19250;42.646;26.980;2022-10-30T01:42:10;99616.06;;;10.96;100.00
12799;BME280;19250;42.646;26.980;2022-10-30T01:44:37;99609.44;;;11.37;100.00
12799;BME280;19250;42.646;26.980;2022-10-30T01:47:18;99608.09;;;11.68;100.00
12799;BME280;19250;42.646;26.980;2022-10-30T01:50:07;99608.28;;;11.39;100.00
12799;BME280;19250;42.646;26.980;2022-10-30T01:52:41;99605.06;;;10.72;100.00
12799;BME280;19250;42.646;26.980;2022-10-30T01:55:21;99606.41;;;10.39;100.00
12799;BME280;19250;42.646;26.980;2022-10-30T01:57:57;99604.41;;;9.93;100.00
12799;BME280;19250;42.646;26.980;2022-10-30T02:00:26;99598.81;;;9.96;100.00
12799;BME280;19250;42.646;26.980;2022-10-30T02:02:54;99605.25;;;10.13;100.00
12799;BME280;19250;42.646;26.980;2022-10-30T02:05:27;99597.28;;;10.32;100.00
12799;BME280;19250;42.646;26.980;2022-10-30T02:07:56;99599.63;;;10.64;100.00
12799;BME280;19250;42.646;26.980;2022-10-30T02:10:25;99596.19;;;10.81;100.00
12799;BME280;19250;42.646;26.980;2022-10-30T02:12:52;99595.81;;;11.03;100.00
12799;BME280;19250;42.646;26.980;2022-10-30T02:15:20;99591.19;;;11.32;100.00
12799;BME280;19250;42.646;26.980;2022-10-30T02:17:47;99584.03;;;10.96;100.00
12799;BME280;19250;42.646;26.980;2022-10-30T02:20:17;99603.97;;;11.02;100.00
12799;BME280;19250;42.646;26.980;2022-10-30T02:22:45;99594.66;;;11.15;100.00
12799;BME280;19250;42.646;26.980;2022-10-30T02:25:12;99601.34;;;10.46;100.00
12799;BME280;19250;42.646;26.980;2022-10-30T02:27:40;99605.94;;;10.53;100.00
12799;BME280;19250;42.646;26.980;2022-10-30T02:30:08;99596.88;;;10.83;100.00
12799;BME280;19250;42.646;26.980;2022-10-30T02:32:35;99601.19;;;10.93;100.00
12799;BME280;19250;42.646;26.980;2022-10-30T02:35:04;99598.50;;;11.30;100.00
12799;BME280;19250;42.646;26.980;2022-10-30T02:37:33;99591.97;;;11.42;100.00
12799;BME280;19250;42.646;26.980;2022-10-30T02:40:01;99591.34;;;11.04;100.00
12799;BME280;19250;42.646;26.980;2022-10-30T02:42:28;99601.88;;;11.50;100.00
12799;BME280;19250;42.646;26.980;2022-10-30T02:45:14;99606.31;;;11.14;100.00
12799;BME280;19250;42.646;26.980;2022-10-30T02:47:41;99601.94;;;11.68;100.00
12799;BME280;19250;42.646;26.980;2022-10-30T02:50:09;99604.56;;;11.50;100.00
12799;BME280;19250;42.646;26.980;2022-10-30T02:52:38;99598.69;;;11.46;100.00
12799;BME280;19250;42.646;26.980;2022-10-30T02:55:05;99594.88;;;11.49;100.00
12799;BME280;19250;42.646;26.980;2022-10-30T02:57:32;99597.19;;;11.62;100.00
12799;BME280;19250;42.646;26.980;2022-10-30T03:00:00;99595.19;;;11.19;100.00
12799;BME280;19250;42.646;26.980;2022-10-30T03:02:27;99598.03;;;11.35;100.00
12799;BME280;19250;42.646;26.980;2022-10-30T03:04:54;99596.75;;;11.39;100.00
12799;BME280;19250;42.646;26.980;2022-10-30T03:07:21;99597.94;;;11.54;100.00
12799;BME280;19250;42.646;26.980;2022-10-30T03:09:50;99593.81;;;11.60;100.00
12799;BME280;19250;42.646;26.980;2022-10-30T03:12:19;99591.13;;;11.87;100.00
12799;BME280;19250;42.646;26.980;2022-10-30T03:14:46;99592.28;;;11.84;100.00
12799;BME280;19250;42.646;26.980;2022-10-30T03:17:13;99592.88;;;11.78;100.00
12799;BME280;19250;42.646;26.980;2022-10-30T03:19:41;99593.75;;;11.69;100.00
12799;BME280;19250;42.646;26.980;2022-10-30T03:22:08;99583.69;;;11.63;100.00
12799;BME280;19250;42.646;26.980;2022-10-30T03:24:35;99591.72;;;11.36;100.00
12799;BME280;19250;42.646;26.980;2022-10-30T03:27:04;99601.03;;;10.95;100.00
12799;BME280;19250;42.646;26.980;2022-10-30T03:29:32;99586.81;;;11.04;100.00
12799;BME280;19250;42.646;26.980;2022-10-30T03:31:59;99587.72;;;10.49;100.00
12799;BME280;19250;42.646;26.980;2022-10-30T03:34:27;99586.16;;;10.46;100.00
12799;BME280;19250;42.646;26.980;2022-10-30T03:36:54;99584.78;;;9.94;100.00
12799;BME280;19250;42.646;26.980;2022-10-30T03:39:21;99591.22;;;9.72;100.00
12799;BME280;19250;42.646;26.980;2022-10-30T03:41:48;99582.56;;;10.09;100.00
12799;BME280;19250;42.646;26.980;2022-10-30T03:44:17;99575.25;;;10.76;100.00
12799;BME280;19250;42.646;26.980;2022-10-30T03:46:44;99576.63;;;10.90;100.00
12799;BME280;19250;42.646;26.980;2022-10-30T03:49:12;99582.63;;;11.29;100.00
12799;BME280;19250;42.646;26.980;2022-10-30T03:51:39;99576.84;;;11.33;100.00
12799;BME280;19250;42.646;26.980;2022-10-30T03:54:06;99583.91;;;11.52;100.00
12799;BME280;19250;42.646;26.980;2022-10-30T03:56:33;99581.13;;;11.44;100.00
12799;BME280;19250;42.646;26.980;2022-10-30T03:59:01;99589.31;;;10.78;100.00
12799;BME280;19250;42.646;26.980;2022-10-30T04:01:29;99588.88;;;10.73;100.00
12799;BME280;19250;42.646;26.980;2022-10-30T04:03:57;99585.63;;;11.16;100.00
12799;BME280;19250;42.646;26.980;2022-10-30T04:06:24;99587.78;;;11.40;100.00
12799;BME280;19250;42.646;26.980;2022-10-30T04:08:53;99592.75;;;11.53;100.00
12799;BME280;19250;42.646;26.980;2022-10-30T04:11:20;99588.22;;;11.35;100.00
12799;BME280;19250;42.646;26.980;2022-10-30T04:13:48;99591.06;;;10.60;100.00
12799;BME280;19250;42.646;26.980;2022-10-30T04:16:15;99591.44;;;10.75;100.00
12799;BME280;19250;42.646;26.980;2022-10-30T04:18:43;99579.34;;;11.08;100.00
12799;BME280;19250;42.646;26.980;2022-10-30T04:24:32;99574.50;;;10.47;100.00
12799;BME280;19250;42.646;26.980;2022-10-30T04:26:59;99571.03;;;10.83;100.00
12799;BME280;19250;42.646;26.980;2022-10-30T04:29:27;99569.59;;;10.52;100.00
12799;BME280;19250;42.646;26.980;2022-10-30T04:31:54;99564.53;;;10.49;100.00
12799;BME280;19250;42.646;26.980;2022-10-30T04:34:23;99557.28;;;10.42;100.00
12799;BME280;19250;42.646;26.980;2022-10-30T04:36:50;99554.72;;;10.86;100.00
12799;BME280;19250;42.646;26.980;2022-10-30T04:39:17;99562.88;;;10.95;100.00
12799;BME280;19250;42.646;26.980;2022-10-30T04:41:44;99561.69;;;11.07;100.00
12799;BME280;19250;42.646;26.980;2022-10-30T04:44:12;99567.00;;;11.34;100.00
12799;BME280;19250;42.646;26.980;2022-10-30T04:46:39;99570.38;;;11.36;100.00
12799;BME280;19250;42.646;26.980;2022-10-30T04:49:06;99569.84;;;11.50;100.00
12799;BME280;19250;42.646;26.980;2022-10-30T04:51:35;99570.16;;;11.47;100.00
12799;BME280;19250;42.646;26.980;2022-10-30T04:54:02;99578.25;;;11.37;100.00
12799;BME280;19250;42.646;26.980;2022-10-30T04:56:30;99573.72;;;11.38;100.00
12799;BME280;19250;42.646;26.980;2022-10-30T04:58:58;99576.50;;;11.46;100.00
12799;BME280;19250;42.646;26.980;2022-10-30T05:01:25;99581.19;;;11.34;100.00
12799;BME280;19250;42.646;26.980;2022-10-30T05:03:52;99578.47;;;10.80;100.00
12799;BME280;19250;42.646;26.980;2022-10-30T05:06:22;99589.56;;;10.29;100.00
12799;BME280;19250;42.646;26.980;2022-10-30T05:08:51;99594.88;;;10.10;100.00
12799;BME280;19250;42.646;26.980;2022-10-30T05:11:20;99580.81;;;10.56;100.00
12799;BME280;19250;42.646;26.980;2022-10-30T05:13:47;99583.19;;;10.96;100.00
12799;BME280;19250;42.646;26.980;2022-10-30T05:16:14;99585.28;;;11.29;100.00
12799;BME280;19250;42.646;26.980;2022-10-30T05:18:42;99585.66;;;11.61;100.00
12799;BME280;19250;42.646;26.980;2022-10-30T05:21:09;99588.22;;;11.80;100.00
12799;BME280;19250;42.646;26.980;2022-10-30T05:23:36;99583.94;;;12.05;100.00
12799;BME280;19250;42.646;26.980;2022-10-30T05:26:05;99583.72;;;12.60;100.00
12799;BME280;19250;42.646;26.980;2022-10-30T05:28:32;99589.50;;;13.06;100.00
12799;BME280;19250;42.646;26.980;2022-10-30T05:31:00;99591.91;;;13.51;100.00
12799;BME280;19250;42.646;26.980;2022-10-30T05:33:27;99595.84;;;13.81;100.00
12799;BME280;19250;42.646;26.980;2022-10-30T05:35:54;99599.06;;;14.09;100.00
12799;BME280;19250;42.646;26.980;2022-10-30T05:38:21;99603.63;;;14.33;100.00
12799;BME280;19250;42.646;26.980;2022-10-30T05:40:49;99591.22;;;14.48;100.00
12799;BME280;19250;42.646;26.980;2022-10-30T05:43:17;99602.56;;;14.74;100.00
12799;BME280;19250;42.646;26.980;2022-10-30T05:45:47;99599.66;;;15.00;100.00
12799;BME280;19250;42.646;26.980;2022-10-30T05:48:15;99596.09;;;15.15;100.00
12799;BME280;19250;42.646;26.980;2022-10-30T05:50:42;99590.44;;;15.41;100.00
12799;BME280;19250;42.646;26.980;2022-10-30T05:53:09;99593.41;;;15.62;100.00
12799;BME280;19250;42.646;26.980;2022-10-30T05:55:37;99591.53;;;15.71;100.00
12799;BME280;19250;42.646;26.980;2022-10-30T05:58:05;99600.16;;;15.89;100.00
12799;BME280;19250;42.646;26.980;2022-10-30T06:00:35;99595.84;;;16.03;100.00
12799;BME280;19250;42.646;26.980;2022-10-30T06:03:05;99592.25;;;16.10;100.00
12799;BME280;19250;42.646;26.980;2022-10-30T06:05:34;99596.50;;;16.27;100.00
12799;BME280;19250;42.646;26.980;2022-10-30T06:08:03;99604.38;;;16.52;100.00
12799;BME280;19250;42.646;26.980;2022-10-30T06:10:31;99593.75;;;16.73;100.00
12799;BME280;19250;42.646;26.980;2022-10-30T06:12:59;99592.09;;;16.72;100.00
12799;BME280;19250;42.646;26.980;2022-10-30T06:15:27;99603.94;;;17.15;99.45
12799;BME280;19250;42.646;26.980;2022-10-30T06:17:56;99599.56;;;17.58;97.28
12799;BME280;19250;42.646;26.980;2022-10-30T06:20:26;99602.41;;;17.85;95.02
12799;BME280;19250;42.646;26.980;2022-10-30T06:22:54;99607.03;;;18.13;92.06
12799;BME280;19250;42.646;26.980;2022-10-30T06:25:22;99594.78;;;18.31;89.92
12799;BME280;19250;42.646;26.980;2022-10-30T06:27:50;99594.19;;;18.57;86.49
12799;BME280;19250;42.646;26.980;2022-10-30T06:30:18;99603.63;;;18.68;84.53
12799;BME280;19250;42.646;26.980;2022-10-30T06:32:46;99608.13;;;18.18;84.95
12799;BME280;19250;42.646;26.980;2022-10-30T06:35:17;99609.22;;;18.24;86.51
12799;BME280;19250;42.646;26.980;2022-10-30T06:37:45;99590.47;;;18.58;81.03
12799;BME280;19250;42.646;26.980;2022-10-30T06:40:12;99600.94;;;18.95;78.05
12799;BME280;19250;42.646;26.980;2022-10-30T06:42:43;99595.63;;;19.15;76.66
12799;BME280;19250;42.646;26.980;2022-10-30T06:45:11;99592.84;;;19.36;75.88
12799;BME280;19250;42.646;26.980;2022-10-30T06:47:39;99600.72;;;19.66;73.93
12799;BME280;19250;42.646;26.980;2022-10-30T06:50:09;99596.88;;;20.01;68.58
12799;BME280;19250;42.646;26.980;2022-10-30T06:52:38;99608.06;;;19.78;67.23
12799;BME280;19250;42.646;26.980;2022-10-30T06:55:06;99602.72;;;20.11;67.17
12799;BME280;19250;42.646;26.980;2022-10-30T06:57:33;99607.13;;;20.25;65.09
12799;BME280;19250;42.646;26.980;2022-10-30T07:00:01;99602.41;;;20.47;67.05
12799;BME280;19250;42.646;26.980;2022-10-30T07:02:28;99591.97;;;20.57;65.87
12799;BME280;19250;42.646;26.980;2022-10-30T07:04:55;99605.31;;;20.85;63.41
12799;BME280;19250;42.646;26.980;2022-10-30T07:07:23;99592.56;;;20.92;63.00
12799;BME280;19250;42.646;26.980;2022-10-30T07:09:51;99589.47;;;20.82;62.88
12799;BME280;19250;42.646;26.980;2022-10-30T07:12:18;99580.50;;;20.81;64.04
12799;BME280;19250;42.646;26.980;2022-10-30T07:14:46;99573.41;;;20.93;62.96
12799;BME280;19250;42.646;26.980;2022-10-30T07:17:13;99574.78;;;21.29;60.93
12799;BME280;19250;42.646;26.980;2022-10-30T07:19:40;99576.75;;;21.59;59.09
12799;BME280;19250;42.646;26.980;2022-10-30T07:22:07;99579.97;;;21.88;57.02
12799;BME280;19250;42.646;26.980;2022-10-30T07:24:35;99566.00;;;22.22;54.24
12799;BME280;19250;42.646;26.980;2022-10-30T07:27:03;99568.44;;;21.61;58.53
12799;BME280;19250;42.646;26.980;2022-10-30T07:29:31;99561.19;;;22.24;56.38
12799;BME280;19250;42.646;26.980;2022-10-30T07:31:58;99561.69;;;22.70;54.01
12799;BME280;19250;42.646;26.980;2022-10-30T07:34:25;99561.13;;;23.05;52.26
12799;BME280;19250;42.646;26.980;2022-10-30T07:36:52;99554.56;;;23.49;49.57
12799;BME280;19250;42.646;26.980;2022-10-30T07:39:20;99561.97;;;23.78;48.02
12799;BME280;19250;42.646;26.980;2022-10-30T07:41:47;99556.22;;;23.98;47.16
12799;BME280;19250;42.646;26.980;2022-10-30T07:44:16;99557.88;;;23.99;47.04
12799;BME280;19250;42.646;26.980;2022-10-30T07:46:43;99556.78;;;23.40;51.21
12799;BME280;19250;42.646;26.980;2022-10-30T07:49:11;99561.94;;;22.87;50.15
12799;BME280;19250;42.646;26.980;2022-10-30T07:51:38;99562.19;;;21.54;58.34
12799;BME280;19250;42.646;26.980;2022-10-30T07:54:05;99559.41;;;21.03;60.98
12799;BME280;19250;42.646;26.980;2022-10-30T07:56:32;99553.84;;;21.55;60.08
12799;BME280;19250;42.646;26.980;2022-10-30T07:59:00;99559.53;;;22.23;54.02
12799;BME280;19250;42.646;26.980;2022-10-30T08:01:28;99558.97;;;22.08;54.85
12799;BME280;19250;42.646;26.980;2022-10-30T08:06:23;99560.38;;;22.98;48.30
12799;BME280;19250;42.646;26.980;2022-10-30T08:08:50;99551.41;;;22.72;49.38
12799;BME280;19250;42.646;26.980;2022-10-30T08:11:17;99552.19;;;22.80;46.67
12799;BME280;19250;42.646;26.980;2022-10-30T08:13:44;99551.94;;;22.56;46.58
12799;BME280;19250;42.646;26.980;2022-10-30T08:16:12;99556.53;;;23.05;46.05
12799;BME280;19250;42.646;26.980;2022-10-30T08:18:41;99543.94;;;24.07;42.04
12799;BME280;19250;42.646;26.980;2022-10-30T08:21:09;99542.09;;;23.59;40.51
12799;BME280;19250;42.646;26.980;2022-10-30T08:23:36;99545.22;;;23.45;42.11
12799;BME280;19250;42.646;26.980;2022-10-30T08:26:04;99536.72;;;23.53;41.59
12799;BME280;19250;42.646;26.980;2022-10-30T08:28:31;99537.75;;;23.33;42.10
12799;BME280;19250;42.646;26.980;2022-10-30T08:30:59;99534.34;;;24.34;38.87
12799;BME280;19250;42.646;26.980;2022-10-30T08:33:27;99534.16;;;22.04;46.04
12799;BME280;19250;42.646;26.980;2022-10-30T08:35:57;99531.41;;;23.03;43.33
12799;BME280;19250;42.646;26.980;2022-10-30T08:38:26;99528.16;;;23.31;41.86
12799;BME280;19250;42.646;26.980;2022-10-30T08:40:54;99529.56;;;23.88;39.95
12799;BME280;19250;42.646;26.980;2022-10-30T08:43:21;99501.78;;;22.52;44.44
12799;BME280;19250;42.646;26.980;2022-10-30T08:45:49;99534.59;;;21.63;47.78
12799;BME280;19250;42.646;26.980;2022-10-30T08:48:17;99519.13;;;21.06;52.96
12799;BME280;19250;42.646;26.980;2022-10-30T08:50:44;99490.44;;;20.79;54.53
12799;BME280;19250;42.646;26.980;2022-10-30T08:53:14;99517.16;;;21.78;48.96
12799;BME280;19250;42.646;26.980;2022-10-30T08:55:41;99518.34;;;20.80;52.96
12799;BME280;19250;42.646;26.980;2022-10-30T08:58:09;99513.16;;;20.13;59.17
12799;BME280;19250;42.646;26.980;2022-10-30T09:00:36;99506.28;;;20.17;59.50
12799;BME280;19250;42.646;26.980;2022-10-30T09:03:03;99506.13;;;20.38;58.53
12799;BME280;19250;42.646;26.980;2022-10-30T09:05:30;99505.19;;;21.09;54.27
12799;BME280;19250;42.646;26.980;2022-10-30T09:07:58;99483.47;;;21.03;53.99
12799;BME280;19250;42.646;26.980;2022-10-30T09:10:27;99506.50;;;21.83;49.62
12799;BME280;19250;42.646;26.980;2022-10-30T09:12:55;99507.03;;;21.60;49.62
12799;BME280;19250;42.646;26.980;2022-10-30T09:15:23;99496.31;;;20.24;57.29
12799;BME280;19250;42.646;26.980;2022-10-30T09:17:55;99480.25;;;20.55;56.54
12799;BME280;19250;42.646;26.980;2022-10-30T09:20:24;99494.38;;;20.83;56.80
12799;BME280;19250;42.646;26.980;2022-10-30T09:22:51;99491.19;;;21.19;53.01
12799;BME280;19250;42.646;26.980;2022-10-30T09:25:19;99496.13;;;21.66;49.76
12799;BME280;19250;42.646;26.980;2022-10-30T09:27:53;99485.84;;;22.13;47.53
12799;BME280;19250;42.646;26.980;2022-10-30T09:30:21;99486.88;;;21.43;51.47
12799;BME280;19250;42.646;26.980;2022-10-30T09:32:53;99476.91;;;21.68;50.21
12799;BME280;19250;42.646;26.980;2022-10-30T09:35:21;99477.72;;;21.37;50.69
12799;BME280;19250;42.646;26.980;2022-10-30T09:37:48;99479.22;;;21.71;49.47
12799;BME280;19250;42.646;26.980;2022-10-30T09:40:21;99480.19;;;21.45;51.19
12799;BME280;19250;42.646;26.980;2022-10-30T09:42:54;99478.00;;;21.98;49.58
12799;BME280;19250;42.646;26.980;2022-10-30T09:45:40;99477.06;;;21.80;48.86
12799;BME280;19250;42.646;26.980;2022-10-30T09:51:14;99467.91;;;21.36;50.70
12799;BME280;19250;42.646;26.980;2022-10-30T09:53:52;99461.13;;;21.58;49.84
12799;BME280;19250;42.646;26.980;2022-10-30T09:56:26;99454.06;;;21.82;48.94
12799;BME280;19250;42.646;26.980;2022-10-30T09:59:05;99459.94;;;22.10;48.54
12799;BME280;19250;42.646;26.980;2022-10-30T10:01:39;99451.22;;;23.06;44.81
12799;BME280;19250;42.646;26.980;2022-10-30T10:04:20;99444.28;;;23.10;44.09
12799;BME280;19250;42.646;26.980;2022-10-30T10:06:52;99438.00;;;23.09;43.02
12799;BME280;19250;42.646;26.980;2022-10-30T10:09:22;99435.94;;;22.75;43.52
12799;BME280;19250;42.646;26.980;2022-10-30T10:11:53;99429.19;;;23.14;42.82
12799;BME280;19250;42.646;26.980;2022-10-30T10:14:26;99432.16;;;24.48;39.79
12799;BME280;19250;42.646;26.980;2022-10-30T10:16:55;99430.78;;;24.04;39.76
12799;BME280;19250;42.646;26.980;2022-10-30T10:19:30;99418.13;;;23.09;42.60
12799;BME280;19250;42.646;26.980;2022-10-30T10:22:00;99399.06;;;22.79;43.64
12799;BME280;19250;42.646;26.980;2022-10-30T10:24:29;99391.09;;;22.41;43.54
12799;BME280;19250;42.646;26.980;2022-10-30T10:27:04;99416.41;;;23.74;40.02
12799;BME280;19250;42.646;26.980;2022-10-30T10:29:49;99418.56;;;23.83;40.24
12799;BME280;19250;42.646;26.980;2022-10-30T10:32:39;99390.53;;;23.53;40.30
12799;BME280;19250;42.646;26.980;2022-10-30T10:35:20;99390.44;;;24.36;38.79
12799;BME280;19250;42.646;26.980;2022-10-30T10:37:55;99410.59;;;25.10;36.97
12799;BME280;19250;42.646;26.980;2022-10-30T10:40:38;99404.34;;;26.32;34.13
12799;BME280;19250;42.646;26.980;2022-10-30T10:43:14;99403.19;;;25.95;34.68
12799;BME280;19250;42.646;26.980;2022-10-30T10:45:55;99400.50;;;25.50;35.65
12799;BME280;19250;42.646;26.980;2022-10-30T10:48:40;99401.56;;;26.49;34.19
12799;BME280;19250;42.646;26.980;2022-10-30T10:51:13;99406.53;;;26.52;33.78
12799;BME280;19250;42.646;26.980;2022-10-30T10:53:45;99390.19;;;25.12;35.74
12799;BME280;19250;42.646;26.980;2022-10-30T10:56:15;99373.03;;;25.17;35.60
12799;BME280;19250;42.646;26.980;2022-10-30T10:58:47;99382.22;;;25.67;34.76
12799;BME280;19250;42.646;26.980;2022-10-30T11:01:21;99365.16;;;25.93;34.53
12799;BME280;19250;42.646;26.980;2022-10-30T11:03:54;99353.94;;;26.12;34.59
12799;BME280;19250;42.646;26.980;2022-10-30T11:06:27;99370.13;;;26.30;33.86
12799;BME280;19250;42.646;26.980;2022-10-30T11:09:04;99374.59;;;26.03;34.41
12799;BME280;19250;42.646;26.980;2022-10-30T11:11:38;99364.47;;;26.36;34.05
12799;BME280;19250;42.646;26.980;2022-10-30T11:14:14;99364.53;;;26.20;33.43
12799;BME280;19250;42.646;26.980;2022-10-30T11:16:53;99362.81;;;26.95;32.77
12799;BME280;19250;42.646;26.980;2022-10-30T11:19:22;99339.59;;;28.62;30.08
12799;BME280;19250;42.646;26.980;2022-10-30T11:21:52;99363.81;;;27.91;30.18
12799;BME280;19250;42.646;26.980;2022-10-30T11:24:29;99353.97;;;28.79;29.22
12799;BME280;19250;42.646;26.980;2022-10-30T11:26:58;99349.53;;;28.68;29.94
12799;BME280;19250;42.646;26.980;2022-10-30T11:29:27;99348.22;;;28.34;29.80
12799;BME280;19250;42.646;26.980;2022-10-30T11:32:01;99341.44;;;27.19;31.45
12799;BME280;19250;42.646;26.980;2022-10-30T11:34:32;99345.19;;;26.86;31.81
12799;BME280;19250;42.646;26.980;2022-10-30T11:37:00;99307.88;;;27.02;32.10
12799;BME280;19250;42.646;26.980;2022-10-30T11:39:29;99333.03;;;27.52;30.82
12799;BME280;19250;42.646;26.980;2022-10-30T11:42:03;99326.38;;;28.07;30.44
12799;BME280;19250;42.646;26.980;2022-10-30T11:44:35;99330.69;;;28.40;29.49
12799;BME280;19250;42.646;26.980;2022-10-30T11:47:05;99295.72;;;27.46;30.42
12799;BME280;19250;42.646;26.980;2022-10-30T11:49:43;99330.16;;;28.43;29.47
12799;BME280;19250;42.646;26.980;2022-10-30T11:52:14;99329.84;;;28.96;28.67
12799;BME280;19250;42.646;26.980;2022-10-30T11:54:45;99325.63;;;29.51;27.86
12799;BME280;19250;42.646;26.980;2022-10-30T11:57:20;99321.09;;;30.56;27.38
12799;BME280;19250;42.646;26.980;2022-10-30T11:59:49;99324.44;;;30.28;26.78
12799;BME280;19250;42.646;26.980;2022-10-30T12:02:24;99322.53;;;29.27;27.87
12799;BME280;19250;42.646;26.980;2022-10-30T12:04:53;99320.06;;;30.21;27.13
12799;BME280;19250;42.646;26.980;2022-10-30T12:07:26;99318.88;;;28.39;29.00
12799;BME280;19250;42.646;26.980;2022-10-30T12:09:54;99315.69;;;28.62;29.34
12799;BME280;19250;42.646;26.980;2022-10-30T12:12:27;99311.88;;;29.51;27.93
12799;BME280;19250;42.646;26.980;2022-10-30T12:15:07;99308.25;;;29.30;28.27
12799;BME280;19250;42.646;26.980;2022-10-30T12:17:37;99311.88;;;28.63;29.08
12799;BME280;19250;42.646;26.980;2022-10-30T12:20:06;99301.88;;;29.04;29.28
12799;BME280;19250;42.646;26.980;2022-10-30T12:22:34;99284.41;;;30.70;26.71
12799;BME280;19250;42.646;26.980;2022-10-30T12:25:04;99300.28;;;29.24;27.47
12799;BME280;19250;42.646;26.980;2022-10-30T12:27:35;99295.47;;;28.22;29.22
12799;BME280;19250;42.646;26.980;2022-10-30T12:30:09;99295.41;;;26.89;31.30
12799;BME280;19250;42.646;26.980;2022-10-30T12:32:49;99290.34;;;27.98;29.86
12799;BME280;19250;42.646;26.980;2022-10-30T12:35:37;99294.25;;;28.54;29.46
12799;BME280;19250;42.646;26.980;2022-10-30T12:38:12;99298.47;;;28.72;28.64
12799;BME280;19250;42.646;26.980;2022-10-30T12:40:45;99294.81;;;29.99;27.53
12799;BME280;19250;42.646;26.980;2022-10-30T12:43:19;99289.59;;;29.83;27.39
12799;BME280;19250;42.646;26.980;2022-10-30T12:45:50;99223.31;;;29.79;26.88
12799;BME280;19250;42.646;26.980;2022-10-30T12:48:24;99286.56;;;29.89;27.27
12799;BME280;19250;42.646;26.980;2022-10-30T12:51:05;99282.22;;;31.21;25.49
12799;BME280;19250;42.646;26.980;2022-10-30T12:53:41;99290.69;;;29.77;27.10
12799;BME280;19250;42.646;26.980;2022-10-30T12:56:13;99289.56;;;29.73;27.10
12799;BME280;19250;42.646;26.980;2022-10-30T12:58:48;99283.44;;;30.36;26.44
12799;BME280;19250;42.646;26.980;2022-10-30T13:01:21;99265.72;;;31.84;24.17
12799;BME280;19250;42.646;26.980;2022-10-30T13:03:59;99266.78;;;32.41;23.77
12799;BME280;19250;42.646;26.980;2022-10-30T13:06:33;99282.41;;;31.69;24.25
12799;BME280;19250;42.646;26.980;2022-10-30T13:09:17;99276.94;;;29.36;27.11